Woodburn, Mississippi
Current Conditions -  °F | °C
As of 5:53 PM on Friday 24 Oct 2014 (Local Time) from KGLH Reporting Station
Clear Clear  
Wind Chill: 70°   Ceiling: Unl
Heat Index: 70°   Visibility: 10mi
Dew Point: 51°   Wind: 5mph
Humidity: 51%   Direction: 340°NNW
Pressure: 30.1"   Gusts: NA
Location:  33.4825°N, 90.6856°W
Report Text: KGLH 242253Z AUTO 34004KT 10SM CLR 21/11 A3010 RMK AO2 SLP198 T02110106
Loading
Personal Weather Stations






























Interactive Weather Map New forecast layout! Learn more

10-Day Weather Forecast

Advertisements
Track Severe Weather on mobile